sensor_id;sensor_type;location;lat;lon;timestamp;P1;durP1;ratioP1;P2;durP2;ratioP2
61317;SDS011;47201;40.428;-8.436;2023-01-19T00:01:32;36.37;;;12.87;;
61317;SDS011;47201;40.428;-8.436;2023-01-19T00:03:33;32.67;;;11.40;;
61317;SDS011;47201;40.428;-8.436;2023-01-19T00:05:34;44.65;;;13.02;;
61317;SDS011;47201;40.428;-8.436;2023-01-19T00:07:35;42.22;;;13.15;;
61317;SDS011;47201;40.428;-8.436;2023-01-19T00:09:36;28.53;;;13.43;;
61317;SDS011;47201;40.428;-8.436;2023-01-19T00:11:37;43.38;;;13.88;;
61317;SDS011;47201;40.428;-8.436;2023-01-19T00:13:38;41.75;;;13.48;;
61317;SDS011;47201;40.428;-8.436;2023-01-19T00:15:39;59.70;;;14.77;;
61317;SDS011;47201;40.428;-8.436;2023-01-19T00:17:40;42.17;;;14.02;;
61317;SDS011;47201;40.428;-8.436;2023-01-19T00:19:41;34.50;;;12.80;;
61317;SDS011;47201;40.428;-8.436;2023-01-19T00:21:42;27.97;;;11.43;;
61317;SDS011;47201;40.428;-8.436;2023-01-19T00:23:43;28.85;;;12.85;;
61317;SDS011;47201;40.428;-8.436;2023-01-19T00:25:46;25.10;;;13.30;;
61317;SDS011;47201;40.428;-8.436;2023-01-19T00:27:48;27.80;;;14.68;;
61317;SDS011;47201;40.428;-8.436;2023-01-19T00:29:49;33.67;;;13.33;;
61317;SDS011;47201;40.428;-8.436;2023-01-19T00:31:49;28.50;;;11.15;;
61317;SDS011;47201;40.428;-8.436;2023-01-19T00:33:50;22.85;;;10.18;;
61317;SDS011;47201;40.428;-8.436;2023-01-19T00:35:52;24.23;;;10.43;;
61317;SDS011;47201;40.428;-8.436;2023-01-19T00:37:59;18.02;;;8.23;;
61317;SDS011;47201;40.428;-8.436;2023-01-19T00:40:00;21.25;;;9.55;;
61317;SDS011;47201;40.428;-8.436;2023-01-19T00:42:01;24.90;;;9.87;;
61317;SDS011;47201;40.428;-8.436;2023-01-19T00:44:20;26.75;;;9.80;;
61317;SDS011;47201;40.428;-8.436;2023-01-19T00:46:21;21.03;;;9.90;;
61317;SDS011;47201;40.428;-8.436;2023-01-19T00:48:26;23.90;;;10.45;;
61317;SDS011;47201;40.428;-8.436;2023-01-19T00:50:27;24.35;;;10.32;;
61317;SDS011;47201;40.428;-8.436;2023-01-19T00:52:29;27.58;;;9.98;;
61317;SDS011;47201;40.428;-8.436;2023-01-19T00:56:54;30.08;;;10.95;;
61317;SDS011;47201;40.428;-8.436;2023-01-19T00:58:54;30.03;;;9.20;;
61317;SDS011;47201;40.428;-8.436;2023-01-19T01:00:55;16.47;;;8.23;;
61317;SDS011;47201;40.428;-8.436;2023-01-19T01:03:02;32.90;;;10.48;;
61317;SDS011;47201;40.428;-8.436;2023-01-19T01:05:03;18.00;;;8.65;;
61317;SDS011;47201;40.428;-8.436;2023-01-19T01:07:05;21.75;;;10.85;;
61317;SDS011;47201;40.428;-8.436;2023-01-19T01:09:06;23.23;;;9.25;;
61317;SDS011;47201;40.428;-8.436;2023-01-19T01:11:13;20.20;;;8.60;;
61317;SDS011;47201;40.428;-8.436;2023-01-19T01:13:14;26.05;;;9.52;;
61317;SDS011;47201;40.428;-8.436;2023-01-19T01:15:15;16.63;;;9.47;;
61317;SDS011;47201;40.428;-8.436;2023-01-19T01:17:17;22.90;;;9.75;;
61317;SDS011;47201;40.428;-8.436;2023-01-19T01:19:23;34.72;;;11.77;;
61317;SDS011;47201;40.428;-8.436;2023-01-19T01:21:24;39.03;;;14.60;;
61317;SDS011;47201;40.428;-8.436;2023-01-19T01:23:25;30.90;;;11.52;;
61317;SDS011;47201;40.428;-8.436;2023-01-19T01:25:26;32.20;;;11.73;;
61317;SDS011;47201;40.428;-8.436;2023-01-19T01:27:27;33.45;;;12.40;;
61317;SDS011;47201;40.428;-8.436;2023-01-19T01:29:28;38.90;;;12.77;;
61317;SDS011;47201;40.428;-8.436;2023-01-19T01:31:29;47.90;;;13.82;;
61317;SDS011;47201;40.428;-8.436;2023-01-19T01:35:31;48.37;;;11.77;;
61317;SDS011;47201;40.428;-8.436;2023-01-19T01:37:33;32.03;;;10.70;;
61317;SDS011;47201;40.428;-8.436;2023-01-19T01:39:35;32.88;;;10.77;;
61317;SDS011;47201;40.428;-8.436;2023-01-19T01:41:36;20.98;;;10.57;;
61317;SDS011;47201;40.428;-8.436;2023-01-19T01:43:40;33.08;;;11.85;;
61317;SDS011;47201;40.428;-8.436;2023-01-19T01:45:57;30.38;;;10.75;;
61317;SDS011;47201;40.428;-8.436;2023-01-19T01:50:07;33.88;;;14.20;;
61317;SDS011;47201;40.428;-8.436;2023-01-19T01:52:12;31.13;;;13.52;;
61317;SDS011;47201;40.428;-8.436;2023-01-19T01:54:18;38.78;;;12.93;;
61317;SDS011;47201;40.428;-8.436;2023-01-19T01:56:26;37.80;;;14.25;;
61317;SDS011;47201;40.428;-8.436;2023-01-19T01:58:39;27.15;;;12.63;;
61317;SDS011;47201;40.428;-8.436;2023-01-19T02:00:43;38.95;;;13.05;;
61317;SDS011;47201;40.428;-8.436;2023-01-19T02:05:04;25.90;;;12.33;;
61317;SDS011;47201;40.428;-8.436;2023-01-19T02:07:10;34.95;;;13.68;;
61317;SDS011;47201;40.428;-8.436;2023-01-19T02:09:35;33.70;;;13.80;;
61317;SDS011;47201;40.428;-8.436;2023-01-19T02:11:55;33.58;;;12.80;;
61317;SDS011;47201;40.428;-8.436;2023-01-19T02:14:14;33.00;;;13.18;;
61317;SDS011;47201;40.428;-8.436;2023-01-19T02:16:15;24.90;;;12.40;;
61317;SDS011;47201;40.428;-8.436;2023-01-19T02:18:16;29.63;;;11.43;;
61317;SDS011;47201;40.428;-8.436;2023-01-19T02:20:18;21.70;;;10.98;;
61317;SDS011;47201;40.428;-8.436;2023-01-19T02:22:23;28.60;;;12.07;;
61317;SDS011;47201;40.428;-8.436;2023-01-19T02:24:34;22.40;;;10.60;;
61317;SDS011;47201;40.428;-8.436;2023-01-19T02:26:39;25.10;;;10.82;;
61317;SDS011;47201;40.428;-8.436;2023-01-19T02:28:45;18.98;;;9.98;;
61317;SDS011;47201;40.428;-8.436;2023-01-19T02:30:49;23.27;;;11.30;;
61317;SDS011;47201;40.428;-8.436;2023-01-19T02:32:50;23.53;;;10.70;;
61317;SDS011;47201;40.428;-8.436;2023-01-19T02:34:51;24.80;;;12.27;;
61317;SDS011;47201;40.428;-8.436;2023-01-19T02:36:56;37.28;;;12.85;;
61317;SDS011;47201;40.428;-8.436;2023-01-19T02:39:01;32.72;;;12.07;;
61317;SDS011;47201;40.428;-8.436;2023-01-19T02:41:04;27.98;;;12.00;;
61317;SDS011;47201;40.428;-8.436;2023-01-19T02:43:07;38.88;;;13.52;;
61317;SDS011;47201;40.428;-8.436;2023-01-19T02:45:08;27.83;;;10.93;;
61317;SDS011;47201;40.428;-8.436;2023-01-19T02:47:11;22.67;;;11.15;;
61317;SDS011;47201;40.428;-8.436;2023-01-19T02:49:13;19.13;;;10.13;;
61317;SDS011;47201;40.428;-8.436;2023-01-19T02:51:19;26.75;;;9.68;;
61317;SDS011;47201;40.428;-8.436;2023-01-19T02:53:30;32.08;;;10.27;;
61317;SDS011;47201;40.428;-8.436;2023-01-19T02:55:37;26.23;;;11.38;;
61317;SDS011;47201;40.428;-8.436;2023-01-19T03:06:39;37.38;;;13.82;;
61317;SDS011;47201;40.428;-8.436;2023-01-19T03:09:00;31.13;;;14.68;;
61317;SDS011;47201;40.428;-8.436;2023-01-19T03:11:09;40.25;;;15.18;;
61317;SDS011;47201;40.428;-8.436;2023-01-19T03:15:49;30.50;;;13.40;;
61317;SDS011;47201;40.428;-8.436;2023-01-19T03:17:54;31.40;;;12.57;;
61317;SDS011;47201;40.428;-8.436;2023-01-19T03:19:59;42.40;;;13.13;;
61317;SDS011;47201;40.428;-8.436;2023-01-19T03:22:12;34.92;;;14.07;;
61317;SDS011;47201;40.428;-8.436;2023-01-19T03:24:17;35.25;;;13.38;;
61317;SDS011;47201;40.428;-8.436;2023-01-19T03:26:22;43.97;;;14.93;;
61317;SDS011;47201;40.428;-8.436;2023-01-19T03:31:27;35.33;;;15.02;;
61317;SDS011;47201;40.428;-8.436;2023-01-19T03:33:32;23.52;;;9.88;;
61317;SDS011;47201;40.428;-8.436;2023-01-19T03:35:38;29.35;;;9.32;;
61317;SDS011;47201;40.428;-8.436;2023-01-19T03:37:44;25.92;;;10.05;;
61317;SDS011;47201;40.428;-8.436;2023-01-19T03:39:48;24.42;;;11.55;;
61317;SDS011;47201;40.428;-8.436;2023-01-19T03:41:50;34.70;;;13.45;;
61317;SDS011;47201;40.428;-8.436;2023-01-19T03:43:54;40.60;;;16.75;;
61317;SDS011;47201;40.428;-8.436;2023-01-19T03:47:57;47.47;;;16.85;;
61317;SDS011;47201;40.428;-8.436;2023-01-19T03:49:58;62.22;;;19.88;;
61317;SDS011;47201;40.428;-8.436;2023-01-19T03:52:03;64.55;;;19.98;;
61317;SDS011;47201;40.428;-8.436;2023-01-19T03:54:05;52.25;;;16.73;;
61317;SDS011;47201;40.428;-8.436;2023-01-19T03:56:08;61.17;;;20.23;;
61317;SDS011;47201;40.428;-8.436;2023-01-19T03:58:29;78.82;;;21.08;;
61317;SDS011;47201;40.428;-8.436;2023-01-19T04:00:29;74.83;;;21.93;;
61317;SDS011;47201;40.428;-8.436;2023-01-19T04:02:30;38.30;;;16.38;;
61317;SDS011;47201;40.428;-8.436;2023-01-19T04:04:31;44.27;;;14.17;;
61317;SDS011;47201;40.428;-8.436;2023-01-19T04:06:31;26.30;;;12.77;;
61317;SDS011;47201;40.428;-8.436;2023-01-19T04:08:32;26.77;;;12.25;;
61317;SDS011;47201;40.428;-8.436;2023-01-19T04:10:33;24.27;;;10.85;;
61317;SDS011;47201;40.428;-8.436;2023-01-19T04:12:33;26.97;;;11.43;;
61317;SDS011;47201;40.428;-8.436;2023-01-19T04:14:34;20.13;;;10.35;;
61317;SDS011;47201;40.428;-8.436;2023-01-19T04:16:35;26.90;;;11.82;;
61317;SDS011;47201;40.428;-8.436;2023-01-19T04:18:36;44.45;;;14.93;;
61317;SDS011;47201;40.428;-8.436;2023-01-19T04:25:09;29.85;;;11.15;;
61317;SDS011;47201;40.428;-8.436;2023-01-19T04:27:09;30.10;;;12.33;;
61317;SDS011;47201;40.428;-8.436;2023-01-19T04:29:10;31.95;;;11.77;;
61317;SDS011;47201;40.428;-8.436;2023-01-19T04:31:13;33.53;;;11.00;;
61317;SDS011;47201;40.428;-8.436;2023-01-19T04:33:14;35.80;;;13.60;;
61317;SDS011;47201;40.428;-8.436;2023-01-19T04:35:14;50.33;;;14.27;;
61317;SDS011;47201;40.428;-8.436;2023-01-19T04:39:17;44.78;;;12.23;;
61317;SDS011;47201;40.428;-8.436;2023-01-19T04:41:17;55.60;;;12.13;;
61317;SDS011;47201;40.428;-8.436;2023-01-19T04:43:19;38.33;;;12.63;;
61317;SDS011;47201;40.428;-8.436;2023-01-19T04:47:20;26.03;;;10.13;;
61317;SDS011;47201;40.428;-8.436;2023-01-19T04:49:21;22.90;;;9.80;;
61317;SDS011;47201;40.428;-8.436;2023-01-19T04:51:22;31.15;;;9.65;;
61317;SDS011;47201;40.428;-8.436;2023-01-19T04:53:22;20.80;;;9.57;;
61317;SDS011;47201;40.428;-8.436;2023-01-19T04:55:23;25.50;;;10.00;;
61317;SDS011;47201;40.428;-8.436;2023-01-19T04:57:24;25.17;;;9.75;;
61317;SDS011;47201;40.428;-8.436;2023-01-19T04:59:25;16.73;;;8.90;;
61317;SDS011;47201;40.428;-8.436;2023-01-19T05:01:26;21.03;;;8.97;;
61317;SDS011;47201;40.428;-8.436;2023-01-19T05:03:27;19.48;;;9.68;;
61317;SDS011;47201;40.428;-8.436;2023-01-19T05:05:28;32.63;;;9.60;;
61317;SDS011;47201;40.428;-8.436;2023-01-19T05:07:28;22.58;;;8.82;;
61317;SDS011;47201;40.428;-8.436;2023-01-19T05:09:29;26.17;;;9.10;;
61317;SDS011;47201;40.428;-8.436;2023-01-19T05:11:30;42.83;;;12.10;;
61317;SDS011;47201;40.428;-8.436;2023-01-19T05:13:31;47.60;;;13.32;;
61317;SDS011;47201;40.428;-8.436;2023-01-19T05:15:32;38.75;;;12.23;;
61317;SDS011;47201;40.428;-8.436;2023-01-19T05:17:33;39.90;;;12.13;;
61317;SDS011;47201;40.428;-8.436;2023-01-19T05:19:33;40.20;;;12.90;;
61317;SDS011;47201;40.428;-8.436;2023-01-19T05:21:34;58.38;;;13.85;;
61317;SDS011;47201;40.428;-8.436;2023-01-19T05:23:35;34.10;;;11.88;;
61317;SDS011;47201;40.428;-8.436;2023-01-19T05:25:36;32.00;;;10.10;;
61317;SDS011;47201;40.428;-8.436;2023-01-19T05:27:36;20.63;;;8.80;;
61317;SDS011;47201;40.428;-8.436;2023-01-19T05:29:37;18.23;;;8.35;;
61317;SDS011;47201;40.428;-8.436;2023-01-19T05:31:38;20.30;;;8.67;;
61317;SDS011;47201;40.428;-8.436;2023-01-19T05:33:39;18.07;;;8.63;;
61317;SDS011;47201;40.428;-8.436;2023-01-19T05:35:43;16.95;;;8.43;;
61317;SDS011;47201;40.428;-8.436;2023-01-19T05:37:44;14.10;;;8.60;;
61317;SDS011;47201;40.428;-8.436;2023-01-19T05:39:44;21.23;;;8.40;;
61317;SDS011;47201;40.428;-8.436;2023-01-19T05:41:45;18.57;;;9.47;;
61317;SDS011;47201;40.428;-8.436;2023-01-19T05:43:46;20.60;;;10.18;;
61317;SDS011;47201;40.428;-8.436;2023-01-19T05:45:47;18.77;;;9.83;;
61317;SDS011;47201;40.428;-8.436;2023-01-19T05:47:48;34.30;;;12.07;;
61317;SDS011;47201;40.428;-8.436;2023-01-19T05:49:48;59.27;;;18.47;;
61317;SDS011;47201;40.428;-8.436;2023-01-19T05:51:49;88.37;;;22.50;;
61317;SDS011;47201;40.428;-8.436;2023-01-19T05:53:50;57.83;;;19.58;;
61317;SDS011;47201;40.428;-8.436;2023-01-19T05:55:51;88.07;;;21.83;;
61317;SDS011;47201;40.428;-8.436;2023-01-19T05:57:51;78.00;;;17.63;;
61317;SDS011;47201;40.428;-8.436;2023-01-19T05:59:52;91.22;;;16.17;;
61317;SDS011;47201;40.428;-8.436;2023-01-19T06:01:53;92.20;;;16.33;;
61317;SDS011;47201;40.428;-8.436;2023-01-19T06:03:54;58.10;;;12.65;;
61317;SDS011;47201;40.428;-8.436;2023-01-19T06:05:55;55.27;;;13.73;;
61317;SDS011;47201;40.428;-8.436;2023-01-19T06:08:00;48.67;;;13.43;;
61317;SDS011;47201;40.428;-8.436;2023-01-19T06:10:01;65.70;;;14.45;;
61317;SDS011;47201;40.428;-8.436;2023-01-19T06:12:02;51.63;;;13.32;;
61317;SDS011;47201;40.428;-8.436;2023-01-19T06:14:02;60.17;;;11.60;;
61317;SDS011;47201;40.428;-8.436;2023-01-19T06:16:03;30.00;;;6.30;;
61317;SDS011;47201;40.428;-8.436;2023-01-19T06:18:05;30.92;;;8.63;;
61317;SDS011;47201;40.428;-8.436;2023-01-19T06:20:07;36.83;;;10.67;;
61317;SDS011;47201;40.428;-8.436;2023-01-19T06:22:08;21.30;;;6.03;;
61317;SDS011;47201;40.428;-8.436;2023-01-19T06:24:09;14.60;;;5.15;;
61317;SDS011;47201;40.428;-8.436;2023-01-19T06:26:10;16.98;;;5.05;;
61317;SDS011;47201;40.428;-8.436;2023-01-19T06:28:14;34.25;;;6.53;;
61317;SDS011;47201;40.428;-8.436;2023-01-19T06:30:15;29.40;;;5.78;;
61317;SDS011;47201;40.428;-8.436;2023-01-19T06:32:16;22.45;;;5.25;;
61317;SDS011;47201;40.428;-8.436;2023-01-19T06:34:17;33.35;;;7.03;;
61317;SDS011;47201;40.428;-8.436;2023-01-19T06:36:18;26.55;;;6.75;;
61317;SDS011;47201;40.428;-8.436;2023-01-19T06:38:19;29.70;;;5.73;;
61317;SDS011;47201;40.428;-8.436;2023-01-19T06:40:19;21.33;;;5.25;;
61317;SDS011;47201;40.428;-8.436;2023-01-19T06:42:20;15.17;;;4.43;;
61317;SDS011;47201;40.428;-8.436;2023-01-19T06:44:21;14.40;;;4.78;;
61317;SDS011;47201;40.428;-8.436;2023-01-19T06:46:21;21.80;;;4.93;;
61317;SDS011;47201;40.428;-8.436;2023-01-19T06:48:22;17.13;;;5.43;;
61317;SDS011;47201;40.428;-8.436;2023-01-19T06:50:23;38.22;;;9.07;;
61317;SDS011;47201;40.428;-8.436;2023-01-19T06:52:24;35.47;;;8.63;;
61317;SDS011;47201;40.428;-8.436;2023-01-19T06:54:25;18.37;;;5.47;;
61317;SDS011;47201;40.428;-8.436;2023-01-19T06:56:26;36.85;;;9.50;;
61317;SDS011;47201;40.428;-8.436;2023-01-19T06:58:27;26.88;;;7.32;;
61317;SDS011;47201;40.428;-8.436;2023-01-19T07:00:29;32.40;;;7.97;;
61317;SDS011;47201;40.428;-8.436;2023-01-19T07:02:30;15.55;;;6.05;;
61317;SDS011;47201;40.428;-8.436;2023-01-19T07:04:31;16.50;;;4.90;;
61317;SDS011;47201;40.428;-8.436;2023-01-19T07:08:34;15.60;;;4.00;;
61317;SDS011;47201;40.428;-8.436;2023-01-19T07:10:36;10.32;;;4.32;;
61317;SDS011;47201;40.428;-8.436;2023-01-19T07:12:37;7.90;;;3.47;;
61317;SDS011;47201;40.428;-8.436;2023-01-19T07:14:38;18.65;;;4.45;;
61317;SDS011;47201;40.428;-8.436;2023-01-19T07:16:39;12.83;;;4.30;;
61317;SDS011;47201;40.428;-8.436;2023-01-19T07:18:40;10.73;;;3.63;;
61317;SDS011;47201;40.428;-8.436;2023-01-19T07:20:43;12.30;;;3.88;;
61317;SDS011;47201;40.428;-8.436;2023-01-19T07:22:46;14.25;;;4.03;;
61317;SDS011;47201;40.428;-8.436;2023-01-19T07:24:46;19.73;;;4.28;;
61317;SDS011;47201;40.428;-8.436;2023-01-19T07:26:47;9.98;;;3.90;;
61317;SDS011;47201;40.428;-8.436;2023-01-19T07:28:48;14.45;;;4.70;;
61317;SDS011;47201;40.428;-8.436;2023-01-19T07:30:52;15.27;;;4.05;;
61317;SDS011;47201;40.428;-8.436;2023-01-19T07:32:54;23.33;;;4.45;;
61317;SDS011;47201;40.428;-8.436;2023-01-19T07:34:56;16.65;;;5.13;;
61317;SDS011;47201;40.428;-8.436;2023-01-19T07:36:57;16.57;;;4.83;;
61317;SDS011;47201;40.428;-8.436;2023-01-19T07:38:58;19.43;;;5.80;;
61317;SDS011;47201;40.428;-8.436;2023-01-19T07:41:01;12.77;;;4.83;;
61317;SDS011;47201;40.428;-8.436;2023-01-19T07:43:03;21.02;;;5.60;;
61317;SDS011;47201;40.428;-8.436;2023-01-19T07:45:04;39.13;;;9.40;;
61317;SDS011;47201;40.428;-8.436;2023-01-19T07:47:05;24.60;;;5.15;;
61317;SDS011;47201;40.428;-8.436;2023-01-19T07:49:08;12.35;;;3.72;;
61317;SDS011;47201;40.428;-8.436;2023-01-19T07:51:09;17.17;;;3.67;;
61317;SDS011;47201;40.428;-8.436;2023-01-19T07:53:11;12.13;;;3.83;;
61317;SDS011;47201;40.428;-8.436;2023-01-19T07:55:12;14.43;;;4.33;;
61317;SDS011;47201;40.428;-8.436;2023-01-19T07:57:13;10.83;;;4.50;;
61317;SDS011;47201;40.428;-8.436;2023-01-19T07:59:13;18.02;;;4.65;;
61317;SDS011;47201;40.428;-8.436;2023-01-19T08:01:14;10.65;;;3.90;;
61317;SDS011;47201;40.428;-8.436;2023-01-19T08:03:15;18.97;;;4.77;;
61317;SDS011;47201;40.428;-8.436;2023-01-19T08:05:17;8.40;;;3.67;;
61317;SDS011;47201;40.428;-8.436;2023-01-19T08:07:18;11.90;;;4.00;;
61317;SDS011;47201;40.428;-8.436;2023-01-19T08:09:19;10.10;;;4.13;;
61317;SDS011;47201;40.428;-8.436;2023-01-19T08:11:20;12.07;;;4.13;;
61317;SDS011;47201;40.428;-8.436;2023-01-19T08:13:20;17.60;;;5.67;;
61317;SDS011;47201;40.428;-8.436;2023-01-19T08:15:21;27.63;;;8.20;;
61317;SDS011;47201;40.428;-8.436;2023-01-19T08:17:23;59.35;;;9.90;;
61317;SDS011;47201;40.428;-8.436;2023-01-19T08:19:24;49.13;;;10.90;;
61317;SDS011;47201;40.428;-8.436;2023-01-19T08:21:26;47.53;;;8.73;;
61317;SDS011;47201;40.428;-8.436;2023-01-19T08:23:27;10.13;;;5.15;;
61317;SDS011;47201;40.428;-8.436;2023-01-19T08:27:31;22.98;;;6.15;;
61317;SDS011;47201;40.428;-8.436;2023-01-19T08:29:32;24.67;;;6.00;;
61317;SDS011;47201;40.428;-8.436;2023-01-19T08:31:33;43.57;;;7.07;;
61317;SDS011;47201;40.428;-8.436;2023-01-19T08:33:33;50.40;;;9.73;;
61317;SDS011;47201;40.428;-8.436;2023-01-19T08:37:37;51.25;;;9.82;;
61317;SDS011;47201;40.428;-8.436;2023-01-19T08:39:38;29.40;;;8.47;;
61317;SDS011;47201;40.428;-8.436;2023-01-19T08:41:38;26.05;;;6.20;;
61317;SDS011;47201;40.428;-8.436;2023-01-19T08:43:39;21.17;;;5.53;;
61317;SDS011;47201;40.428;-8.436;2023-01-19T08:45:42;24.20;;;7.20;;
61317;SDS011;47201;40.428;-8.436;2023-01-19T08:47:47;25.70;;;6.03;;
61317;SDS011;47201;40.428;-8.436;2023-01-19T08:49:48;19.00;;;4.90;;
61317;SDS011;47201;40.428;-8.436;2023-01-19T08:51:48;15.80;;;4.07;;
61317;SDS011;47201;40.428;-8.436;2023-01-19T08:53:49;8.30;;;2.95;;
61317;SDS011;47201;40.428;-8.436;2023-01-19T08:55:53;3.63;;;2.77;;
61317;SDS011;47201;40.428;-8.436;2023-01-19T08:57:56;9.98;;;4.10;;
61317;SDS011;47201;40.428;-8.436;2023-01-19T08:59:58;22.08;;;4.78;;
61317;SDS011;47201;40.428;-8.436;2023-01-19T09:01:59;49.43;;;7.83;;
61317;SDS011;47201;40.428;-8.436;2023-01-19T09:04:00;36.33;;;8.47;;
61317;SDS011;47201;40.428;-8.436;2023-01-19T09:06:01;36.92;;;7.88;;
61317;SDS011;47201;40.428;-8.436;2023-01-19T09:08:06;38.85;;;8.15;;
61317;SDS011;47201;40.428;-8.436;2023-01-19T09:10:08;37.08;;;8.35;;
61317;SDS011;47201;40.428;-8.436;2023-01-19T09:12:10;38.00;;;7.65;;
61317;SDS011;47201;40.428;-8.436;2023-01-19T09:14:13;47.40;;;7.93;;
61317;SDS011;47201;40.428;-8.436;2023-01-19T09:16:14;27.08;;;6.80;;
61317;SDS011;47201;40.428;-8.436;2023-01-19T09:18:16;47.45;;;9.93;;
61317;SDS011;47201;40.428;-8.436;2023-01-19T09:20:19;61.42;;;12.20;;
61317;SDS011;47201;40.428;-8.436;2023-01-19T09:22:19;52.22;;;11.68;;
61317;SDS011;47201;40.428;-8.436;2023-01-19T09:24:20;36.47;;;10.50;;
61317;SDS011;47201;40.428;-8.436;2023-01-19T09:26:21;31.48;;;7.57;;
61317;SDS011;47201;40.428;-8.436;2023-01-19T09:28:22;26.08;;;6.05;;
61317;SDS011;47201;40.428;-8.436;2023-01-19T09:30:23;16.90;;;5.43;;
61317;SDS011;47201;40.428;-8.436;2023-01-19T09:32:24;17.50;;;4.55;;
61317;SDS011;47201;40.428;-8.436;2023-01-19T09:34:25;16.13;;;4.40;;
61317;SDS011;47201;40.428;-8.436;2023-01-19T09:36:25;21.33;;;5.18;;
61317;SDS011;47201;40.428;-8.436;2023-01-19T09:38:26;17.10;;;5.05;;
61317;SDS011;47201;40.428;-8.436;2023-01-19T09:40:30;25.83;;;6.00;;
61317;SDS011;47201;40.428;-8.436;2023-01-19T09:44:38;23.55;;;6.85;;
61317;SDS011;47201;40.428;-8.436;2023-01-19T09:46:43;18.92;;;6.05;;
61317;SDS011;47201;40.428;-8.436;2023-01-19T09:48:45;16.85;;;4.40;;
61317;SDS011;47201;40.428;-8.436;2023-01-19T09:50:53;11.50;;;3.63;;
61317;SDS011;47201;40.428;-8.436;2023-01-19T09:52:59;13.10;;;2.97;;
61317;SDS011;47201;40.428;-8.436;2023-01-19T09:55:08;30.10;;;5.70;;
61317;SDS011;47201;40.428;-8.436;2023-01-19T09:57:23;27.05;;;5.15;;
61317;SDS011;47201;40.428;-8.436;2023-01-19T09:59:29;12.57;;;3.40;;
61317;SDS011;47201;40.428;-8.436;2023-01-19T10:03:52;7.95;;;3.28;;
61317;SDS011;47201;40.428;-8.436;2023-01-19T10:06:18;14.27;;;3.30;;
61317;SDS011;47201;40.428;-8.436;2023-01-19T10:08:27;18.27;;;4.10;;
61317;SDS011;47201;40.428;-8.436;2023-01-19T10:10:31;57.40;;;10.18;;
61317;SDS011;47201;40.428;-8.436;2023-01-19T10:14:41;20.05;;;4.85;;
61317;SDS011;47201;40.428;-8.436;2023-01-19T10:21:30;9.65;;;2.65;;
61317;SDS011;47201;40.428;-8.436;2023-01-19T10:25:51;17.27;;;3.55;;
61317;SDS011;47201;40.428;-8.436;2023-01-19T10:27:54;32.95;;;6.68;;
61317;SDS011;47201;40.428;-8.436;2023-01-19T10:29:55;17.02;;;5.43;;
61317;SDS011;47201;40.428;-8.436;2023-01-19T10:32:01;27.65;;;6.80;;
61317;SDS011;47201;40.428;-8.436;2023-01-19T10:34:13;48.20;;;8.32;;
61317;SDS011;47201;40.428;-8.436;2023-01-19T10:36:18;38.95;;;9.10;;
61317;SDS011;47201;40.428;-8.436;2023-01-19T10:38:25;30.60;;;9.43;;
61317;SDS011;47201;40.428;-8.436;2023-01-19T10:42:52;29.05;;;6.80;;
61317;SDS011;47201;40.428;-8.436;2023-01-19T10:46:55;57.23;;;10.70;;
61317;SDS011;47201;40.428;-8.436;2023-01-19T10:48:58;28.70;;;6.45;;
61317;SDS011;47201;40.428;-8.436;2023-01-19T10:51:02;25.70;;;7.53;;
61317;SDS011;47201;40.428;-8.436;2023-01-19T10:53:04;50.45;;;11.00;;
61317;SDS011;47201;40.428;-8.436;2023-01-19T10:55:10;35.75;;;9.27;;
61317;SDS011;47201;40.428;-8.436;2023-01-19T10:57:28;27.92;;;7.72;;
61317;SDS011;47201;40.428;-8.436;2023-01-19T10:59:33;34.38;;;7.85;;
61317;SDS011;47201;40.428;-8.436;2023-01-19T11:01:36;23.52;;;7.93;;
61317;SDS011;47201;40.428;-8.436;2023-01-19T11:03:37;21.45;;;5.65;;
61317;SDS011;47201;40.428;-8.436;2023-01-19T11:05:37;16.20;;;4.63;;
61317;SDS011;47201;40.428;-8.436;2023-01-19T11:07:41;11.95;;;3.85;;
61317;SDS011;47201;40.428;-8.436;2023-01-19T11:09:41;12.73;;;3.65;;
61317;SDS011;47201;40.428;-8.436;2023-01-19T11:11:46;15.75;;;4.05;;
61317;SDS011;47201;40.428;-8.436;2023-01-19T11:14:06;12.48;;;4.60;;
61317;SDS011;47201;40.428;-8.436;2023-01-19T11:18:29;16.45;;;4.93;;
61317;SDS011;47201;40.428;-8.436;2023-01-19T11:23:06;16.92;;;4.40;;
61317;SDS011;47201;40.428;-8.436;2023-01-19T11:25:28;15.60;;;5.60;;
61317;SDS011;47201;40.428;-8.436;2023-01-19T11:27:32;12.15;;;4.30;;
61317;SDS011;47201;40.428;-8.436;2023-01-19T11:29:35;24.52;;;5.88;;
61317;SDS011;47201;40.428;-8.436;2023-01-19T11:31:36;24.30;;;6.60;;
61317;SDS011;47201;40.428;-8.436;2023-01-19T11:33:59;15.00;;;4.90;;
61317;SDS011;47201;40.428;-8.436;2023-01-19T11:36:06;13.95;;;5.88;;
61317;SDS011;47201;40.428;-8.436;2023-01-19T11:38:16;16.13;;;5.72;;
61317;SDS011;47201;40.428;-8.436;2023-01-19T11:40:19;12.45;;;5.22;;
61317;SDS011;47201;40.428;-8.436;2023-01-19T11:42:20;14.50;;;6.57;;
61317;SDS011;47201;40.428;-8.436;2023-01-19T11:44:29;14.75;;;6.07;;
61317;SDS011;47201;40.428;-8.436;2023-01-19T11:46:36;15.23;;;6.13;;
61317;SDS011;47201;40.428;-8.436;2023-01-19T11:48:41;18.08;;;6.18;;
61317;SDS011;47201;40.428;-8.436;2023-01-19T11:50:49;19.52;;;6.18;;
61317;SDS011;47201;40.428;-8.436;2023-01-19T11:53:13;19.92;;;5.82;;
61317;SDS011;47201;40.428;-8.436;2023-01-19T11:55:37;11.57;;;5.55;;
61317;SDS011;47201;40.428;-8.436;2023-01-19T11:57:46;17.33;;;6.18;;
61317;SDS011;47201;40.428;-8.436;2023-01-19T11:59:49;23.50;;;9.25;;
61317;SDS011;47201;40.428;-8.436;2023-01-19T12:01:51;14.05;;;7.43;;
61317;SDS011;47201;40.428;-8.436;2023-01-19T12:08:19;12.45;;;5.50;;
61317;SDS011;47201;40.428;-8.436;2023-01-19T12:10:24;16.55;;;5.75;;
61317;SDS011;47201;40.428;-8.436;2023-01-19T12:12:31;15.32;;;6.13;;
61317;SDS011;47201;40.428;-8.436;2023-01-19T12:14:39;10.90;;;6.35;;
61317;SDS011;47201;40.428;-8.436;2023-01-19T12:16:43;14.95;;;5.53;;
61317;SDS011;47201;40.428;-8.436;2023-01-19T12:21:11;13.48;;;5.22;;
61317;SDS011;47201;40.428;-8.436;2023-01-19T12:25:31;16.90;;;5.57;;
61317;SDS011;47201;40.428;-8.436;2023-01-19T12:27:54;13.15;;;5.68;;
61317;SDS011;47201;40.428;-8.436;2023-01-19T12:29:56;13.38;;;4.85;;
61317;SDS011;47201;40.428;-8.436;2023-01-19T12:40:35;15.23;;;6.00;;
61317;SDS011;47201;40.428;-8.436;2023-01-19T12:42:35;16.98;;;4.53;;
61317;SDS011;47201;40.428;-8.436;2023-01-19T12:44:45;14.30;;;4.90;;
61317;SDS011;47201;40.428;-8.436;2023-01-19T12:46:55;5.50;;;3.90;;
61317;SDS011;47201;40.428;-8.436;2023-01-19T12:51:23;13.13;;;5.10;;
61317;SDS011;47201;40.428;-8.436;2023-01-19T12:53:25;13.82;;;3.72;;
61317;SDS011;47201;40.428;-8.436;2023-01-19T12:55:27;6.18;;;3.15;;
61317;SDS011;47201;40.428;-8.436;2023-01-19T12:57:38;5.95;;;2.85;;
61317;SDS011;47201;40.428;-8.436;2023-01-19T12:59:55;11.27;;;2.67;;
61317;SDS011;47201;40.428;-8.436;2023-01-19T13:04:30;6.65;;;2.35;;
61317;SDS011;47201;40.428;-8.436;2023-01-19T13:08:54;8.73;;;2.90;;
61317;SDS011;47201;40.428;-8.436;2023-01-19T13:13:11;8.63;;;2.75;;
61317;SDS011;47201;40.428;-8.436;2023-01-19T13:15:26;9.48;;;3.20;;
61317;SDS011;47201;40.428;-8.436;2023-01-19T13:17:46;15.43;;;3.53;;
61317;SDS011;47201;40.428;-8.436;2023-01-19T13:19:53;10.05;;;3.35;;
61317;SDS011;47201;40.428;-8.436;2023-01-19T13:22:47;11.63;;;3.93;;
61317;SDS011;47201;40.428;-8.436;2023-01-19T13:27:09;12.73;;;2.65;;
61317;SDS011;47201;40.428;-8.436;2023-01-19T13:31:12;6.13;;;1.73;;
61317;SDS011;47201;40.428;-8.436;2023-01-19T13:33:18;9.45;;;1.40;;